Time;durP1;ratioP1;P1;durP2;ratioP2;P2;SDS_P1;SDS_P2;PMS_P1;PMS_P2;Temp;Humidity;BMP_temperature;BMP_pressure;BME280_temperature;BME280_humidity;BME280_pressure;Samples;Min_cycle;Max_cycle;Signal;HPM_P1;HPM_P2
2022/03/14 00:01:50;;;;;;;11.07;6.43;;;5.00;56.10;;;;;;5061605;28;20059;-85
2022/03/14 00:04:17;;;;;;;9.40;5.57;;;5.00;56.20;;;;;;5075805;28;20594;-83
2022/03/14 00:06:44;;;;;;;7.95;5.40;;;5.00;56.30;;;;;;5060198;28;20035;-86
2022/03/14 00:09:10;;;;;;;10.40;5.80;;;4.90;56.20;;;;;;5057015;28;20112;-83
2022/03/14 00:11:37;;;;;;;12.43;6.63;;;4.90;56.30;;;;;;5062586;28;20077;-82
2022/03/14 00:14:08;;;;;;;10.75;5.90;;;4.80;56.50;;;;;;5076123;28;20064;-86
2022/03/14 00:16:39;;;;;;;10.55;6.15;;;4.80;56.80;;;;;;5056248;28;20017;-85
2022/03/14 00:19:06;;;;;;;9.38;5.53;;;4.80;57.00;;;;;;5056129;28;20113;-87
2022/03/14 00:21:39;;;;;;;12.02;5.72;;;4.80;57.20;;;;;;5061452;28;20045;-84
2022/03/14 00:24:09;;;;;;;9.18;6.05;;;4.80;57.30;;;;;;5075710;28;20028;-83
2022/03/14 00:26:35;;;;;;;9.55;5.30;;;4.80;57.30;;;;;;5069902;28;20025;-86
2022/03/14 00:29:01;;;;;;;8.63;5.50;;;4.80;57.40;;;;;;5057384;28;20043;-87
2022/03/14 00:31:27;;;;;;;10.85;5.88;;;4.70;57.50;;;;;;5071472;28;20041;-81
2022/03/14 00:33:53;;;;;;;8.30;5.18;;;4.70;57.70;;;;;;5076627;28;20025;-83
2022/03/14 00:36:22;;;;;;;8.55;5.10;;;4.60;57.80;;;;;;5067900;28;20029;-86
2022/03/14 00:38:48;;;;;;;9.10;5.75;;;4.60;57.90;;;;;;5059139;28;20032;-84
2022/03/14 00:41:15;;;;;;;8.27;5.57;;;4.70;58.10;;;;;;5061226;28;20029;-87
2022/03/14 00:43:40;;;;;;;7.60;5.05;;;4.70;58.30;;;;;;5060755;28;20517;-85
2022/03/14 00:46:06;;;;;;;7.22;4.68;;;4.70;58.30;;;;;;5057663;28;20128;-86
2022/03/14 00:48:34;;;;;;;7.90;4.80;;;4.70;58.20;;;;;;5054988;28;20021;-86
2022/03/14 00:51:01;;;;;;;10.15;5.65;;;4.70;58.30;;;;;;5056486;28;20028;-86
2022/03/14 00:53:27;;;;;;;8.60;5.30;;;4.70;58.50;;;;;;5055045;28;20048;-86
2022/03/14 00:55:53;;;;;;;9.30;5.47;;;4.70;58.70;;;;;;5056349;28;20021;-86
2022/03/14 00:58:19;;;;;;;10.13;6.28;;;4.60;58.90;;;;;;5055975;28;20120;-87
2022/03/14 01:00:48;;;;;;;13.15;6.85;;;4.60;59.30;;;;;;5056403;28;20193;-85
2022/03/14 01:03:13;;;;;;;11.52;6.93;;;4.60;59.70;;;;;;5056458;28;20482;-87
2022/03/14 01:05:39;;;;;;;11.77;7.28;;;4.60;60.00;;;;;;5056669;28;20029;-85
2022/03/14 01:08:06;;;;;;;15.55;7.85;;;4.50;60.30;;;;;;5046499;28;20397;-86
2022/03/14 01:10:32;;;;;;;11.23;7.57;;;4.50;60.90;;;;;;5055109;28;20056;-85
2022/03/14 01:12:58;;;;;;;11.95;7.13;;;4.40;61.20;;;;;;5055268;28;20059;-87
2022/03/14 01:15:24;;;;;;;11.77;6.93;;;4.40;61.40;;;;;;5056799;28;20013;-85
2022/03/14 01:17:50;;;;;;;11.30;6.97;;;4.40;61.60;;;;;;5062619;28;20021;-85
2022/03/14 01:20:16;;;;;;;11.43;7.05;;;4.40;61.60;;;;;;5059107;28;20100;-86
2022/03/14 01:22:42;;;;;;;10.30;6.43;;;4.40;61.50;;;;;;5056409;28;20025;-85
2022/03/14 01:25:08;;;;;;;11.85;6.97;;;4.40;61.40;;;;;;5056476;28;20048;-86
2022/03/14 01:27:34;;;;;;;11.68;6.45;;;4.40;61.30;;;;;;5056891;28;20021;-86
2022/03/14 01:29:59;;;;;;;11.27;6.18;;;4.40;61.20;;;;;;5055847;28;20033;-86
2022/03/14 01:32:25;;;;;;;13.18;6.95;;;4.40;61.20;;;;;;5054577;28;20127;-86
2022/03/14 01:34:51;;;;;;;11.75;6.22;;;4.50;61.10;;;;;;5057109;28;20187;-86
2022/03/14 01:37:18;;;;;;;11.13;6.40;;;4.50;61.00;;;;;;5056623;28;20029;-86
2022/03/14 01:39:44;;;;;;;12.25;7.53;;;4.50;60.90;;;;;;5067985;28;20016;-85
2022/03/14 01:42:16;;;;;;;12.75;6.50;;;4.50;60.90;;;;;;5055732;28;20108;-84
2022/03/14 01:44:42;;;;;;;8.63;6.38;;;4.50;60.80;;;;;;5055020;28;20052;-85
2022/03/14 01:47:07;;;;;;;9.55;5.93;;;4.50;60.80;;;;;;5055731;28;20028;-86
2022/03/14 01:49:33;;;;;;;11.45;6.85;;;4.50;60.80;;;;;;5073563;28;20032;-82
2022/03/14 01:51:59;;;;;;;11.07;6.22;;;4.50;61.10;;;;;;5074647;28;20021;-83
2022/03/14 01:54:25;;;;;;;11.98;6.40;;;4.50;61.50;;;;;;5072148;28;20044;-85
2022/03/14 01:56:51;;;;;;;10.23;6.70;;;4.50;61.80;;;;;;5071532;28;20025;-82
2022/03/14 01:59:18;;;;;;;10.30;5.35;;;4.50;62.10;;;;;;5075547;28;20037;-83
2022/03/14 02:01:44;;;;;;;9.68;5.38;;;4.50;62.20;;;;;;5058336;28;20025;-87
2022/03/14 02:04:10;;;;;;;11.70;6.68;;;4.60;62.40;;;;;;5056080;28;20021;-85
2022/03/14 02:06:36;;;;;;;11.75;6.40;;;4.60;62.40;;;;;;5054998;28;20559;-86
2022/03/14 02:09:03;;;;;;;10.70;6.35;;;4.70;62.20;;;;;;5055787;28;20014;-86
2022/03/14 02:11:29;;;;;;;9.75;6.20;;;4.70;61.90;;;;;;5058949;28;20017;-86
2022/03/14 02:13:55;;;;;;;11.40;6.40;;;4.80;61.60;;;;;;5059942;28;20109;-86
2022/03/14 02:16:23;;;;;;;9.45;5.90;;;4.90;61.40;;;;;;5060676;28;20021;-84
2022/03/14 02:18:49;;;;;;;10.15;6.03;;;5.00;61.20;;;;;;5059429;28;20461;-86
2022/03/14 02:21:15;;;;;;;13.13;5.88;;;5.10;61.20;;;;;;5057740;28;20029;-84
2022/03/14 02:23:41;;;;;;;9.43;6.07;;;5.20;60.90;;;;;;5058182;28;20032;-86
2022/03/14 02:26:07;;;;;;;9.55;6.15;;;5.30;60.30;;;;;;5058752;28;20044;-83
2022/03/14 02:28:32;;;;;;;11.07;6.68;;;5.40;59.80;;;;;;5059284;28;20436;-86
2022/03/14 02:31:01;;;;;;;13.23;7.05;;;5.40;59.10;;;;;;5060329;28;20044;-86
2022/03/14 02:33:26;;;;;;;11.45;6.82;;;5.50;58.80;;;;;;5057800;28;20473;-85
2022/03/14 02:35:52;;;;;;;10.85;6.28;;;5.50;58.50;;;;;;5061161;28;20021;-85
2022/03/14 02:38:19;;;;;;;13.07;7.07;;;5.60;58.30;;;;;;5068902;28;20025;-81
2022/03/14 02:40:47;;;;;;;9.57;5.53;;;5.60;58.10;;;;;;5077775;28;20036;-82
2022/03/14 02:43:15;;;;;;;10.23;5.93;;;5.70;58.00;;;;;;5078560;28;20020;-83
2022/03/14 02:45:43;;;;;;;10.10;6.15;;;5.70;57.70;;;;;;5062200;28;20047;-84
2022/03/14 02:48:09;;;;;;;9.70;5.60;;;5.80;57.60;;;;;;5058057;28;20024;-86
2022/03/14 02:50:40;;;;;;;11.98;5.72;;;5.80;57.60;;;;;;5059698;28;20047;-84
2022/03/14 02:53:05;;;;;;;10.27;5.82;;;5.80;57.70;;;;;;5057869;28;20158;-85
2022/03/14 02:55:31;;;;;;;7.82;5.13;;;5.80;57.90;;;;;;5059546;28;20025;-86
2022/03/14 02:57:59;;;;;;;9.07;5.68;;;5.90;58.20;;;;;;5057805;28;20033;-87
2022/03/14 03:00:25;;;;;;;9.18;5.47;;;5.90;58.20;;;;;;5058123;28;20020;-86
2022/03/14 03:02:51;;;;;;;11.02;5.63;;;5.80;58.20;;;;;;5058727;28;20029;-86
2022/03/14 03:05:17;;;;;;;9.68;5.97;;;5.90;58.30;;;;;;5057197;28;20020;-86
2022/03/14 03:07:48;;;;;;;10.63;6.07;;;5.80;58.30;;;;;;5058458;28;20024;-86
2022/03/14 03:10:23;;;;;;;10.40;5.68;;;6.00;58.40;;;;;;5058953;28;20381;-85
2022/03/14 03:12:49;;;;;;;8.68;5.53;;;6.10;58.20;;;;;;5059021;28;20037;-83
2022/03/14 03:15:16;;;;;;;9.77;6.03;;;6.30;57.80;;;;;;5062368;28;20036;-83
2022/03/14 03:17:42;;;;;;;9.75;5.65;;;6.40;57.50;;;;;;5061636;28;20331;-83
2022/03/14 03:20:09;;;;;;;10.50;6.10;;;6.60;57.20;;;;;;5060485;28;20044;-84
2022/03/14 03:22:35;;;;;;;10.95;5.90;;;6.70;56.90;;;;;;5059609;28;20035;-84
2022/03/14 03:25:01;;;;;;;10.82;5.97;;;6.90;56.80;;;;;;5061716;28;20044;-84
2022/03/14 03:27:27;;;;;;;15.13;5.65;;;7.00;56.80;;;;;;5062321;28;20021;-84
2022/03/14 03:29:53;;;;;;;9.15;5.28;;;7.20;56.80;;;;;;5063641;28;20085;-84
2022/03/14 03:32:18;;;;;;;10.10;6.18;;;7.30;56.80;;;;;;5062221;28;20055;-84
2022/03/14 03:34:44;;;;;;;12.48;6.28;;;7.50;57.10;;;;;;5063723;28;20032;-84
2022/03/14 03:37:10;;;;;;;11.60;6.22;;;7.70;57.30;;;;;;5062440;28;20085;-84
2022/03/14 03:39:36;;;;;;;14.38;6.50;;;7.80;57.70;;;;;;5062919;28;20036;-85
2022/03/14 03:42:02;;;;;;;12.43;6.88;;;7.90;57.90;;;;;;5064061;28;20474;-85
2022/03/14 03:44:29;;;;;;;13.35;6.82;;;8.00;58.20;;;;;;5063996;28;20032;-84
2022/03/14 03:46:55;;;;;;;15.23;7.40;;;8.00;58.40;;;;;;5063507;28;20032;-84
2022/03/14 03:49:21;;;;;;;12.85;7.63;;;8.10;59.40;;;;;;5063375;28;20025;-83
2022/03/14 03:51:47;;;;;;;14.57;8.18;;;8.20;59.80;;;;;;5062763;28;20017;-83
2022/03/14 03:54:12;;;;;;;15.20;7.93;;;8.20;60.10;;;;;;5062930;28;20041;-84
2022/03/14 03:56:41;;;;;;;14.82;8.50;;;8.20;60.60;;;;;;5064534;28;20021;-84
2022/03/14 03:59:07;;;;;;;17.30;7.95;;;8.30;61.60;;;;;;5068582;28;20009;-84
2022/03/14 04:01:33;;;;;;;13.43;7.25;;;8.30;61.70;;;;;;5077448;28;20014;-83
2022/03/14 04:03:59;;;;;;;13.80;8.68;;;8.30;61.90;;;;;;5076297;28;20010;-84
2022/03/14 04:06:28;;;;;;;17.02;8.90;;;8.30;63.00;;;;;;5076064;28;20029;-83
2022/03/14 04:08:55;;;;;;;19.73;9.32;;;8.30;63.40;;;;;;5070887;28;20028;-83
2022/03/14 04:11:21;;;;;;;17.95;9.32;;;8.30;63.90;;;;;;5073345;28;20033;-83
2022/03/14 04:13:51;;;;;;;17.67;9.95;;;8.30;64.10;;;;;;5075959;28;20029;-83
2022/03/14 04:16:18;;;;;;;17.02;10.57;;;8.30;65.20;;;;;;5076230;28;20036;-84
2022/03/14 04:18:45;;;;;;;17.23;10.35;;;8.30;65.90;;;;;;5075911;28;20017;-84
2022/03/14 04:21:13;;;;;;;17.02;10.30;;;8.30;66.40;;;;;;5076849;28;20013;-84
2022/03/14 04:23:38;;;;;;;17.38;10.43;;;8.30;66.80;;;;;;5076789;28;20077;-84
2022/03/14 04:26:04;;;;;;;19.70;11.48;;;8.20;67.20;;;;;;5076981;28;20067;-85
2022/03/14 04:28:30;;;;;;;19.33;12.38;;;8.20;68.20;;;;;;5075570;28;20029;-84
2022/03/14 04:30:57;;;;;;;20.55;11.82;;;8.20;68.60;;;;;;5068336;28;20056;-83
2022/03/14 04:33:23;;;;;;;20.75;12.02;;;8.20;68.90;;;;;;5072595;28;20009;-84
2022/03/14 04:35:49;;;;;;;24.60;13.88;;;8.20;69.90;;;;;;5072823;28;20021;-82
2022/03/14 04:38:18;;;;;;;24.30;13.35;;;8.30;70.40;;;;;;5068459;28;20029;-83
2022/03/14 04:40:44;;;;;;;24.20;14.30;;;8.20;70.60;;;;;;5064522;28;20100;-81
2022/03/14 04:43:10;;;;;;;21.70;13.80;;;8.20;71.00;;;;;;5053770;28;20044;-81
2022/03/14 04:45:37;;;;;;;20.77;11.88;;;8.20;71.20;;;;;;5061921;28;20025;-81
2022/03/14 04:48:05;;;;;;;18.45;12.00;;;8.20;71.10;;;;;;5060597;28;20036;-81
2022/03/14 04:50:31;;;;;;;23.13;13.45;;;8.00;71.20;;;;;;5059914;28;20017;-80
2022/03/14 04:52:56;;;;;;;21.25;13.15;;;8.00;72.20;;;;;;5060757;28;20033;-81
2022/03/14 04:55:22;;;;;;;20.60;12.52;;;8.00;72.40;;;;;;5057649;28;20047;-81
2022/03/14 04:57:48;;;;;;;21.23;13.35;;;7.90;72.30;;;;;;5058575;28;20366;-81
2022/03/14 05:00:15;;;;;;;21.27;12.82;;;7.80;73.00;;;;;;5058634;28;20062;-82
2022/03/14 05:02:40;;;;;;;16.83;11.20;;;7.70;73.00;;;;;;5059627;28;20021;-79
2022/03/14 05:05:11;;;;;;;21.48;12.63;;;7.70;73.50;;;;;;5060007;28;20056;-82
2022/03/14 05:07:37;;;;;;;19.55;11.90;;;7.70;74.30;;;;;;5057823;28;20025;-81
2022/03/14 05:10:04;;;;;;;20.50;12.18;;;7.70;74.50;;;;;;5059461;28;20482;-81
2022/03/14 05:12:34;;;;;;;20.25;13.00;;;7.70;74.90;;;;;;5055893;28;20025;-83
2022/03/14 05:15:00;;;;;;;24.48;12.90;;;7.70;75.00;;;;;;5056364;28;20032;-83
2022/03/14 05:17:27;;;;;;;17.13;11.00;;;7.70;76.00;;;;;;5056348;28;20470;-83
2022/03/14 05:19:53;;;;;;;23.65;12.07;;;7.70;76.20;;;;;;5055495;28;20096;-83
2022/03/14 05:22:19;;;;;;;20.42;11.50;;;7.80;76.70;;;;;;5053759;28;20495;-82
2022/03/14 05:24:45;;;;;;;16.65;10.80;;;7.90;77.00;;;;;;5055896;28;20028;-83
2022/03/14 05:27:12;;;;;;;16.67;11.07;;;7.90;77.20;;;;;;5055698;28;20021;-82
2022/03/14 05:29:38;;;;;;;22.85;10.88;;;7.90;77.60;;;;;;5056066;28;20090;-83
2022/03/14 05:32:04;;;;;;;15.18;9.85;;;8.00;77.50;;;;;;5055594;28;20061;-82
2022/03/14 05:34:31;;;;;;;15.90;10.13;;;8.10;77.50;;;;;;5054038;28;20347;-82
2022/03/14 05:36:58;;;;;;;15.75;9.55;;;8.20;77.70;;;;;;5054158;28;20224;-81
2022/03/14 05:39:24;;;;;;;15.30;8.30;;;8.20;77.60;;;;;;5051921;28;20108;-80
2022/03/14 05:41:49;;;;;;;11.30;7.15;;;8.20;77.70;;;;;;5054580;28;20540;-80
2022/03/14 05:44:15;;;;;;;12.65;7.57;;;8.20;77.80;;;;;;5054114;28;20054;-81
2022/03/14 05:46:41;;;;;;;10.57;6.95;;;8.20;78.00;;;;;;5055650;28;20064;-81
2022/03/14 05:49:06;;;;;;;10.23;6.82;;;8.20;78.00;;;;;;5055570;28;20115;-81
2022/03/14 05:51:34;;;;;;;11.18;6.90;;;8.20;78.40;;;;;;5055426;28;20047;-82
2022/03/14 05:54:00;;;;;;;8.85;5.53;;;8.30;79.00;;;;;;5056367;28;20422;-80
2022/03/14 05:56:26;;;;;;;10.75;6.97;;;8.40;79.70;;;;;;5055943;28;20032;-80
2022/03/14 05:58:52;;;;;;;8.73;6.30;;;8.40;79.40;;;;;;5055500;28;20021;-81
2022/03/14 06:01:20;;;;;;;8.95;5.72;;;8.50;79.40;;;;;;5056971;28;20047;-81
2022/03/14 06:03:46;;;;;;;8.63;5.68;;;8.50;79.50;;;;;;5053072;28;20048;-80
2022/03/14 06:06:11;;;;;;;9.30;5.28;;;8.50;79.80;;;;;;5044040;28;20030;-80
2022/03/14 06:08:37;;;;;;;8.73;5.47;;;8.60;80.00;;;;;;5052476;28;20029;-80
2022/03/14 06:11:05;;;;;;;7.55;5.35;;;8.60;80.30;;;;;;5053806;28;20029;-79
2022/03/14 06:13:31;;;;;;;8.98;5.75;;;8.70;80.30;;;;;;5040768;28;20033;-81
2022/03/14 06:15:57;;;;;;;8.95;5.18;;;8.80;80.60;;;;;;5033906;28;20363;-80
2022/03/14 06:18:22;;;;;;;7.20;5.03;;;8.80;80.50;;;;;;5033530;28;20037;-80
2022/03/14 06:20:48;;;;;;;6.60;4.78;;;8.90;80.40;;;;;;5034435;28;20130;-81
2022/03/14 06:23:16;;;;;;;9.38;4.95;;;8.90;80.50;;;;;;5034915;28;20057;-79
2022/03/14 06:25:42;;;;;;;8.73;4.75;;;8.90;80.50;;;;;;5046283;28;20025;-81
2022/03/14 06:28:08;;;;;;;7.28;4.65;;;8.90;80.70;;;;;;5049620;28;20215;-80
2022/03/14 06:30:34;;;;;;;7.35;4.32;;;9.00;80.60;;;;;;5055153;28;20078;-79
2022/03/14 06:33:00;;;;;;;6.35;4.63;;;9.10;80.60;;;;;;5056655;28;20101;-79
2022/03/14 06:35:26;;;;;;;4.40;3.42;;;9.10;80.70;;;;;;5056660;28;20032;-81
2022/03/14 06:37:52;;;;;;;6.80;4.32;;;9.20;80.40;;;;;;5056085;28;20028;-80
2022/03/14 06:40:18;;;;;;;8.43;4.75;;;9.30;80.20;;;;;;5056417;28;20080;-81
2022/03/14 06:42:50;;;;;;;7.07;3.80;;;9.30;80.00;;;;;;5056039;28;20025;-80
2022/03/14 06:45:22;;;;;;;8.68;4.35;;;9.30;79.80;;;;;;5056155;28;20031;-80
2022/03/14 06:47:54;;;;;;;6.43;3.78;;;9.30;80.00;;;;;;5050863;28;20572;-80
2022/03/14 06:50:21;;;;;;;4.57;3.40;;;9.20;80.30;;;;;;5061540;28;20048;-80
2022/03/14 06:52:48;;;;;;;9.85;3.30;;;9.20;80.60;;;;;;5073128;28;20051;-82
2022/03/14 06:55:15;;;;;;;5.25;3.05;;;9.10;81.00;;;;;;5062965;28;20040;-79
2022/03/14 06:57:41;;;;;;;8.35;3.10;;;9.10;81.20;;;;;;5058754;28;20048;-80
2022/03/14 07:00:08;;;;;;;4.70;3.42;;;9.00;81.30;;;;;;5062264;28;20029;-79
2022/03/14 07:02:35;;;;;;;6.50;3.17;;;9.00;81.50;;;;;;5063618;28;20072;-81
2022/03/14 07:05:01;;;;;;;5.72;2.70;;;9.10;81.50;;;;;;5061717;28;20024;-79
2022/03/14 07:07:27;;;;;;;5.32;3.10;;;9.10;81.40;;;;;;5062728;28;20081;-81
2022/03/14 07:09:54;;;;;;;3.30;2.60;;;9.10;81.20;;;;;;5063416;28;20079;-80
2022/03/14 07:12:20;;;;;;;3.17;2.22;;;9.20;81.00;;;;;;5064430;28;20021;-81
2022/03/14 07:14:46;;;;;;;3.83;2.50;;;9.20;80.60;;;;;;5062129;28;20624;-79
2022/03/14 07:17:11;;;;;;;2.90;2.35;;;9.30;80.20;;;;;;5060542;28;20025;-79
2022/03/14 07:19:42;;;;;;;3.92;2.42;;;9.40;79.50;;;;;;5064416;28;20031;-80
2022/03/14 07:22:09;;;;;;;7.88;2.10;;;9.40;79.00;;;;;;5062618;28;20028;-79
2022/03/14 07:24:34;;;;;;;2.88;2.20;;;9.60;78.00;;;;;;5059455;28;20127;-81
2022/03/14 07:27:00;;;;;;;3.15;1.95;;;9.70;76.80;;;;;;5061514;28;20102;-80
2022/03/14 07:29:26;;;;;;;2.97;1.88;;;9.90;76.40;;;;;;5061519;28;20115;-82
2022/03/14 07:31:52;;;;;;;5.75;2.17;;;10.00;75.90;;;;;;5059899;28;20025;-78
2022/03/14 07:34:17;;;;;;;3.38;1.88;;;10.20;75.20;;;;;;5063510;28;20108;-79
2022/03/14 07:36:44;;;;;;;2.05;1.77;;;10.20;74.30;;;;;;5060251;28;20025;-81
2022/03/14 07:39:09;;;;;;;4.13;2.00;;;10.40;74.10;;;;;;5062251;28;20017;-80
2022/03/14 07:41:36;;;;;;;4.00;2.72;;;10.40;73.40;;;;;;5061763;28;20041;-79
2022/03/14 07:44:03;;;;;;;1.98;1.75;;;10.50;73.40;;;;;;5063098;28;20021;-80
2022/03/14 07:46:29;;;;;;;2.33;1.75;;;10.60;72.50;;;;;;5060964;28;20027;-81
2022/03/14 07:48:55;;;;;;;4.13;2.28;;;10.60;72.50;;;;;;5061176;28;20084;-81
2022/03/14 07:51:21;;;;;;;6.70;2.60;;;10.80;72.40;;;;;;5061064;28;20074;-81
2022/03/14 07:53:46;;;;;;;2.17;1.65;;;10.90;72.00;;;;;;5062948;28;20036;-81
2022/03/14 07:56:13;;;;;;;4.13;1.92;;;11.10;71.40;;;;;;5063869;28;20021;-80
2022/03/14 07:58:41;;;;;;;2.10;1.65;;;11.20;70.10;;;;;;5066965;28;20068;-81
2022/03/14 08:01:07;;;;;;;2.53;1.83;;;11.30;69.40;;;;;;5067518;28;20092;-80
2022/03/14 08:03:33;;;;;;;3.05;2.00;;;11.20;69.30;;;;;;5059957;28;20579;-80
2022/03/14 08:06:00;;;;;;;2.55;1.55;;;11.20;69.20;;;;;;5059940;28;20036;-80
2022/03/14 08:08:29;;;;;;;3.22;1.60;;;11.20;69.40;;;;;;5059963;28;20477;-78
2022/03/14 08:10:55;;;;;;;2.50;1.50;;;11.20;69.50;;;;;;5056365;28;20080;-77
2022/03/14 08:13:21;;;;;;;2.38;1.60;;;11.30;68.90;;;;;;5054675;28;20025;-76
2022/03/14 08:15:47;;;;;;;2.90;1.75;;;11.50;68.10;;;;;;5056277;28;20366;-77
2022/03/14 08:18:13;;;;;;;1.40;1.25;;;11.70;66.80;;;;;;5055325;28;20025;-77
2022/03/14 08:20:39;;;;;;;3.78;1.63;;;11.80;66.40;;;;;;5057532;28;20032;-78
2022/03/14 08:23:06;;;;;;;4.93;1.75;;;12.00;65.70;;;;;;5057443;28;20139;-78
2022/03/14 08:25:34;;;;;;;2.03;1.60;;;12.10;65.60;;;;;;5057707;28;20027;-79
2022/03/14 08:28:00;;;;;;;3.50;1.00;;;12.30;64.80;;;;;;5056067;28;20029;-78
2022/03/14 08:30:27;;;;;;;1.33;0.90;;;12.50;63.50;;;;;;5053656;28;20021;-78
2022/03/14 08:32:57;;;;;;;2.85;0.63;;;12.70;62.80;;;;;;5054678;28;20378;-78
2022/03/14 08:35:24;;;;;;;2.45;1.20;;;13.10;61.20;;;;;;5054549;28;20021;-79
2022/03/14 08:37:51;;;;;;;2.35;0.95;;;13.40;59.80;;;;;;5055421;28;20029;-80
2022/03/14 08:40:21;;;;;;;4.20;1.02;;;13.70;58.50;;;;;;5055251;28;20025;-78
2022/03/14 08:42:48;;;;;;;0.80;0.70;;;13.80;58.00;;;;;;5054396;28;20029;-78
2022/03/14 08:45:14;;;;;;;0.63;0.50;;;13.80;58.00;;;;;;5053855;28;20029;-76
2022/03/14 08:47:41;;;;;;;2.13;0.80;;;13.70;58.00;;;;;;5054305;28;20021;-80
2022/03/14 08:50:08;;;;;;;1.80;0.68;;;13.90;57.40;;;;;;5054911;28;20029;-78
2022/03/14 08:52:35;;;;;;;1.70;0.50;;;14.00;57.20;;;;;;5053317;28;20116;-78
2022/03/14 08:55:01;;;;;;;0.88;0.80;;;13.80;57.40;;;;;;5057652;28;20021;-79
2022/03/14 08:57:27;;;;;;;2.58;1.55;;;13.80;58.00;;;;;;5061481;28;20078;-79
2022/03/14 08:59:54;;;;;;;6.72;1.73;;;13.90;57.80;;;;;;5058597;28;20021;-78
2022/03/14 09:02:20;;;;;;;1.02;1.00;;;14.00;56.90;;;;;;5054800;28;20040;-79
2022/03/14 09:04:46;;;;;;;1.00;0.82;;;14.10;57.50;;;;;;5053031;28;20029;-77
2022/03/14 09:07:11;;;;;;;2.10;0.80;;;14.30;56.70;;;;;;5052973;28;20098;-78
2022/03/14 09:09:37;;;;;;;1.38;0.73;;;14.50;55.00;;;;;;5052724;28;20018;-82
2022/03/14 09:12:03;;;;;;;1.40;1.10;;;14.40;54.20;;;;;;5052748;28;20367;-80
2022/03/14 09:14:32;;;;;;;0.73;0.73;;;14.30;54.20;;;;;;5061023;28;20104;-81
2022/03/14 09:16:58;;;;;;;0.77;0.70;;;14.30;54.60;;;;;;5060085;28;20029;-80
2022/03/14 09:19:29;;;;;;;0.70;0.70;;;14.00;55.50;;;;;;5060376;28;20029;-81
2022/03/14 09:21:58;;;;;;;0.85;0.70;;;14.10;55.80;;;;;;5059499;28;20078;-81
2022/03/14 09:24:26;;;;;;;1.52;0.43;;;14.40;54.90;;;;;;5059857;28;20100;-82
2022/03/14 09:26:55;;;;;;;1.40;0.70;;;14.50;54.50;;;;;;5057438;28;20098;-76
2022/03/14 09:29:22;;;;;;;1.70;0.60;;;14.20;54.60;;;;;;5053922;28;20180;-78
2022/03/14 09:31:49;;;;;;;1.20;0.70;;;13.90;55.70;;;;;;5054612;28;20029;-78
2022/03/14 09:34:14;;;;;;;1.55;0.70;;;13.70;56.90;;;;;;5065971;28;20021;-78
2022/03/14 09:36:40;;;;;;;1.13;0.63;;;13.70;56.20;;;;;;5073917;28;20071;-76
2022/03/14 09:39:11;;;;;;;0.70;0.63;;;13.60;56.90;;;;;;5074550;28;20041;-79
2022/03/14 09:41:45;;;;;;;1.90;0.77;;;13.80;56.80;;;;;;5073894;28;20080;-77
2022/03/14 09:44:15;;;;;;;0.95;0.68;;;13.80;56.50;;;;;;5073872;28;20028;-79
2022/03/14 09:46:42;;;;;;;1.55;0.65;;;13.80;56.20;;;;;;5074237;28;20021;-84
2022/03/14 09:49:12;;;;;;;1.95;0.70;;;13.80;56.90;;;;;;5074342;28;20017;-81
2022/03/14 09:51:39;;;;;;;2.33;0.50;;;13.90;56.70;;;;;;5071248;28;20005;-83
2022/03/14 09:54:07;;;;;;;2.83;0.77;;;14.10;56.50;;;;;;5067292;28;20047;-81
2022/03/14 09:56:33;;;;;;;9.82;1.10;;;14.10;56.40;;;;;;5061156;28;20576;-81
2022/03/14 09:59:03;;;;;;;0.82;0.80;;;14.90;55.50;;;;;;5061811;28;20029;-83
2022/03/14 10:01:29;;;;;;;1.15;0.63;;;15.70;53.70;;;;;;5063533;28;20021;-84
2022/03/14 10:03:55;;;;;;;1.73;0.75;;;16.10;52.20;;;;;;5061382;28;20025;-84
2022/03/14 10:06:22;;;;;;;0.50;0.50;;;16.20;51.60;;;;;;5062640;28;20047;-85
2022/03/14 10:08:48;;;;;;;2.25;0.80;;;16.30;51.30;;;;;;5061836;28;20021;-85
2022/03/14 10:11:14;;;;;;;0.45;0.45;;;16.60;50.30;;;;;;5058866;28;20032;-84
2022/03/14 10:13:39;;;;;;;0.77;0.40;;;16.20;50.80;;;;;;5058065;28;20040;-84
2022/03/14 10:16:06;;;;;;;0.85;0.50;;;16.00;51.70;;;;;;5058676;28;20024;-86
2022/03/14 10:18:58;;;;;;;0.57;0.57;;;15.90;51.70;;;;;;5040187;28;20029;-84
2022/03/14 10:21:40;;;;;;;0.95;0.80;;;16.40;50.70;;;;;;5060205;28;20021;-83
2022/03/14 10:24:08;;;;;;;1.05;0.50;;;16.40;50.80;;;;;;5070325;28;20032;-84
2022/03/14 10:26:35;;;;;;;0.68;0.68;;;16.90;50.60;;;;;;5067194;28;20051;-84
2022/03/14 10:29:03;;;;;;;2.40;0.82;;;17.20;48.80;;;;;;5065398;28;20031;-84
2022/03/14 10:31:35;;;;;;;3.95;0.57;;;17.10;48.60;;;;;;5076629;28;20025;-83
2022/03/14 10:34:08;;;;;;;0.40;0.40;;;16.80;48.70;;;;;;5079272;28;20048;-85
2022/03/14 10:36:43;;;;;;;0.43;0.43;;;16.20;48.80;;;;;;5078411;28;20028;-83
2022/03/14 10:39:12;;;;;;;0.43;0.43;;;15.70;49.70;;;;;;5071178;28;20060;-85
2022/03/14 10:41:39;;;;;;;2.60;0.70;;;15.40;50.50;;;;;;5066724;28;20025;-85
2022/03/14 10:44:06;;;;;;;3.25;0.73;;;15.20;50.70;;;;;;5066568;28;20021;-84
2022/03/14 10:46:33;;;;;;;1.85;0.47;;;15.00;50.40;;;;;;5065352;28;20496;-85
2022/03/14 10:48:58;;;;;;;3.50;0.80;;;14.60;50.90;;;;;;5062900;28;20031;-85
2022/03/14 10:51:25;;;;;;;1.75;0.70;;;14.50;51.80;;;;;;5064657;28;20165;-85
2022/03/14 10:53:51;;;;;;;2.72;0.50;;;14.80;51.50;;;;;;5064935;28;20110;-85
2022/03/14 10:56:17;;;;;;;0.55;0.52;;;14.70;51.00;;;;;;5064239;28;20028;-86
2022/03/14 10:58:43;;;;;;;0.60;0.60;;;14.70;52.10;;;;;;5067075;28;20021;-84
2022/03/14 11:01:11;;;;;;;0.73;0.70;;;15.00;51.80;;;;;;5078023;28;20021;-82
2022/03/14 11:03:39;;;;;;;0.85;0.70;;;15.10;51.20;;;;;;5069034;28;20263;-85
2022/03/14 11:06:11;;;;;;;0.70;0.70;;;14.80;51.00;;;;;;5070296;28;20035;-81
2022/03/14 11:08:39;;;;;;;0.65;0.63;;;14.60;52.10;;;;;;5076029;28;20029;-83
2022/03/14 11:11:08;;;;;;;7.88;1.08;;;14.60;52.60;;;;;;5077093;28;20040;-82
2022/03/14 11:13:44;;;;;;;0.50;0.50;;;15.00;52.10;;;;;;5073173;28;20029;-83
2022/03/14 11:16:12;;;;;;;5.88;0.90;;;15.50;51.40;;;;;;5072344;28;20017;-83
2022/03/14 11:18:41;;;;;;;3.80;1.67;;;16.00;50.40;;;;;;5071107;28;20032;-83
2022/03/14 11:21:08;;;;;;;0.95;0.60;;;15.90;49.10;;;;;;5070440;28;20021;-83
2022/03/14 11:23:36;;;;;;;0.52;0.50;;;15.90;49.30;;;;;;5070233;28;20111;-83
2022/03/14 11:26:02;;;;;;;1.38;0.90;;;15.90;49.60;;;;;;5068442;28;20566;-84
2022/03/14 11:28:33;;;;;;;3.72;0.70;;;16.00;48.90;;;;;;5068881;28;20276;-83
2022/03/14 11:31:02;;;;;;;0.52;0.50;;;16.10;49.20;;;;;;5070766;28;20076;-82
2022/03/14 11:33:30;;;;;;;1.65;0.70;;;16.30;49.40;;;;;;5070068;28;20025;-83
2022/03/14 11:35:59;;;;;;;1.42;1.30;;;16.50;48.70;;;;;;5070303;28;20031;-82
2022/03/14 11:38:27;;;;;;;2.10;0.90;;;16.50;48.20;;;;;;5070841;28;20017;-83
2022/03/14 11:40:53;;;;;;;0.57;0.57;;;16.60;48.10;;;;;;5069167;28;20074;-83
2022/03/14 11:43:19;;;;;;;2.42;0.57;;;16.80;47.90;;;;;;5070106;28;20025;-83
2022/03/14 11:45:46;;;;;;;0.57;0.57;;;16.90;47.30;;;;;;5072676;28;20020;-85
2022/03/14 11:48:13;;;;;;;2.38;0.90;;;17.20;47.00;;;;;;5076449;28;20044;-83
2022/03/14 11:50:57;;;;;;;2.78;0.60;;;17.40;45.70;;;;;;5070421;28;20021;-84
2022/03/14 11:53:25;;;;;;;3.20;0.93;;;17.40;45.90;;;;;;5070921;28;20036;-82
2022/03/14 11:55:55;;;;;;;3.42;1.00;;;17.20;46.50;;;;;;5072756;28;20021;-83
2022/03/14 11:58:35;;;;;;;0.93;0.73;;;16.90;46.90;;;;;;5069901;28;20021;-81
2022/03/14 12:01:26;;;;;;;2.25;0.77;;;16.60;47.30;;;;;;5070474;28;20016;-82
2022/03/14 12:03:52;;;;;;;3.40;0.80;;;16.30;48.10;;;;;;5068505;28;20100;-82
2022/03/14 12:06:38;;;;;;;2.75;0.70;;;16.20;49.00;;;;;;5070833;28;20036;-82
2022/03/14 12:09:04;;;;;;;0.40;0.40;;;16.40;48.80;;;;;;5071445;28;20021;-83
2022/03/14 12:11:34;;;;;;;1.42;0.82;;;16.50;48.00;;;;;;5069378;28;20035;-82
2022/03/14 12:14:03;;;;;;;0.55;0.52;;;16.50;47.50;;;;;;5068314;28;20116;-82
2022/03/14 12:16:44;;;;;;;0.68;0.50;;;16.30;47.80;;;;;;5070480;28;20033;-82
2022/03/14 12:19:28;;;;;;;2.90;0.87;;;16.20;48.10;;;;;;5069571;28;20076;-83
2022/03/14 12:21:54;;;;;;;2.20;0.60;;;16.30;48.00;;;;;;5069342;28;20059;-82
2022/03/14 12:24:42;;;;;;;1.85;0.60;;;16.50;47.90;;;;;;5069824;28;20032;-82
2022/03/14 12:27:17;;;;;;;0.65;0.57;;;16.50;47.70;;;;;;5069511;28;20100;-81
2022/03/14 12:29:43;;;;;;;1.08;0.65;;;16.50;48.00;;;;;;5048905;28;20013;-83
2022/03/14 12:32:32;;;;;;;2.95;0.60;;;16.70;46.60;;;;;;5090354;28;20029;-83
2022/03/14 12:35:17;;;;;;;1.30;0.60;;;16.90;46.80;;;;;;5073841;28;20035;-82
2022/03/14 12:37:44;;;;;;;1.98;0.80;;;17.30;46.30;;;;;;5060354;28;20024;-82
2022/03/14 12:40:19;;;;;;;1.67;0.70;;;17.60;44.60;;;;;;5064972;28;20067;-82
2022/03/14 12:42:50;;;;;;;5.22;0.98;;;17.40;45.20;;;;;;5066156;28;20029;-81
2022/03/14 12:45:21;;;;;;;1.63;0.68;;;17.30;45.20;;;;;;5068719;28;20132;-84
2022/03/14 12:47:57;;;;;;;2.80;0.65;;;17.20;45.20;;;;;;5075440;28;20013;-84
2022/03/14 12:50:42;;;;;;;0.70;0.70;;;16.90;45.50;;;;;;5060916;28;20013;-83